createdAt,value
2023-01-27T00:01:21.420Z,27.30
2023-01-27T00:03:49.733Z,21.70
2023-01-27T00:06:18.970Z,23.37
2023-01-27T00:08:47.012Z,15.20
2023-01-27T00:11:34.188Z,20.00
2023-01-27T00:14:02.396Z,16.50
2023-01-27T00:16:30.429Z,22.63
2023-01-27T00:19:02.704Z,18.10
2023-01-27T00:21:48.051Z,25.27
2023-01-27T00:24:34.210Z,14.33
2023-01-27T00:27:03.679Z,18.97
2023-01-27T00:29:34.081Z,18.47
2023-01-27T00:32:21.834Z,16.43
2023-01-27T00:34:50.107Z,10.37
2023-01-27T00:37:18.371Z,12.53
2023-01-27T00:39:46.655Z,16.47
2023-01-27T00:42:16.297Z,7.83
2023-01-27T00:45:06.565Z,12.50
2023-01-27T00:47:34.666Z,11.87
2023-01-27T00:50:04.326Z,11.37
2023-01-27T00:52:32.903Z,10.50
2023-01-27T00:55:01.260Z,13.47
2023-01-27T00:57:33.289Z,11.40
2023-01-27T01:00:01.249Z,7.87
2023-01-27T01:02:29.769Z,10.97
2023-01-27T01:05:00.538Z,20.03
2023-01-27T01:07:29.021Z,6.97
2023-01-27T01:10:17.921Z,10.27
2023-01-27T01:12:47.810Z,12.30
2023-01-27T01:15:16.438Z,12.23
2023-01-27T01:17:44.852Z,13.80
2023-01-27T01:20:15.379Z,9.03
2023-01-27T01:22:45.516Z,9.93
2023-01-27T01:25:13.678Z,11.83
2023-01-27T01:28:03.918Z,7.60
2023-01-27T01:30:33.482Z,12.53
2023-01-27T01:33:02.292Z,9.93
2023-01-27T01:35:31.002Z,13.00
2023-01-27T01:38:00.237Z,10.33
2023-01-27T01:40:29.748Z,11.37
2023-01-27T01:42:59.539Z,11.53
2023-01-27T01:45:47.360Z,7.37
2023-01-27T01:48:19.059Z,10.33
2023-01-27T01:50:51.559Z,10.53
2023-01-27T01:53:21.292Z,9.67
2023-01-27T01:55:50.192Z,9.83
2023-01-27T01:58:20.625Z,6.40
2023-01-27T02:00:51.560Z,9.50
2023-01-27T02:03:19.577Z,10.50
2023-01-27T02:05:48.146Z,11.50
2023-01-27T02:08:21.399Z,12.63
2023-01-27T02:10:50.175Z,7.47
2023-01-27T02:13:18.581Z,10.30
2023-01-27T02:15:46.967Z,7.43
2023-01-27T02:18:16.613Z,4.13
2023-01-27T02:20:46.552Z,6.23
2023-01-27T02:23:32.243Z,7.97
2023-01-27T02:26:06.514Z,13.57
2023-01-27T02:28:34.534Z,6.50
2023-01-27T02:31:02.763Z,8.50
2023-01-27T02:33:32.491Z,6.70
2023-01-27T02:36:05.180Z,9.73
2023-01-27T02:38:39.572Z,6.87
2023-01-27T02:41:15.816Z,6.40
2023-01-27T02:43:44.466Z,7.33
2023-01-27T02:46:14.381Z,9.17
2023-01-27T02:48:42.588Z,9.73
2023-01-27T02:51:10.770Z,6.30
2023-01-27T02:53:39.579Z,8.73
2023-01-27T02:56:09.838Z,10.83
2023-01-27T02:58:40.376Z,3.40
2023-01-27T03:01:32.595Z,8.27
2023-01-27T03:04:01.225Z,10.57
2023-01-27T03:06:29.431Z,10.53
2023-01-27T03:08:58.983Z,12.17
2023-01-27T03:11:46.035Z,9.03
2023-01-27T03:14:15.344Z,17.73
2023-01-27T03:17:00.934Z,11.57
2023-01-27T03:19:29.123Z,11.23
2023-01-27T03:21:57.527Z,12.73
2023-01-27T03:24:26.795Z,11.33
2023-01-27T03:26:58.465Z,12.63
2023-01-27T03:29:44.168Z,13.50
2023-01-27T03:32:12.321Z,12.40
2023-01-27T03:34:40.912Z,11.30
2023-01-27T03:37:26.685Z,12.53
2023-01-27T03:40:12.230Z,15.53
2023-01-27T03:43:02.149Z,12.67
2023-01-27T03:45:47.534Z,15.83
2023-01-27T03:48:18.864Z,17.43
2023-01-27T03:50:53.041Z,17.40
2023-01-27T03:53:21.693Z,13.83
2023-01-27T03:55:52.015Z,15.27
2023-01-27T03:58:30.781Z,13.60
2023-01-27T04:01:02.506Z,16.33
2023-01-27T04:03:50.580Z,14.77
2023-01-27T04:06:37.838Z,12.67
2023-01-27T04:09:07.780Z,13.10
2023-01-27T04:11:53.398Z,9.07
2023-01-27T04:14:25.039Z,15.40
2023-01-27T04:16:54.915Z,8.67
2023-01-27T04:19:23.024Z,13.00
2023-01-27T04:21:51.588Z,10.23
2023-01-27T04:24:26.077Z,16.10
2023-01-27T04:26:58.637Z,13.40
2023-01-27T04:29:29.562Z,13.80
2023-01-27T04:31:58.680Z,11.50
2023-01-27T04:34:29.633Z,18.47
2023-01-27T04:36:59.310Z,17.70
2023-01-27T04:39:27.865Z,16.53
2023-01-27T04:41:59.133Z,15.10
2023-01-27T04:44:31.152Z,14.00
2023-01-27T04:47:19.783Z,12.43
2023-01-27T04:49:47.681Z,14.43
2023-01-27T04:52:15.693Z,14.27
2023-01-27T04:54:43.682Z,14.17
2023-01-27T04:57:11.693Z,12.80
2023-01-27T04:59:42.877Z,15.10
2023-01-27T05:02:10.847Z,16.03
2023-01-27T05:04:38.789Z,16.63
2023-01-27T05:07:06.881Z,14.40
2023-01-27T05:09:34.793Z,13.03
2023-01-27T05:12:02.719Z,9.47
2023-01-27T05:14:30.666Z,12.20
2023-01-27T05:17:00.145Z,12.13
2023-01-27T05:19:28.387Z,10.00
2023-01-27T05:21:56.391Z,9.63
2023-01-27T05:24:24.701Z,7.87
2023-01-27T05:26:53.515Z,8.23
2023-01-27T05:29:21.577Z,6.93
2023-01-27T05:31:49.671Z,8.27
2023-01-27T05:34:19.253Z,7.80
2023-01-27T05:36:47.281Z,7.87
2023-01-27T05:39:15.502Z,5.97
2023-01-27T05:41:43.517Z,8.17
2023-01-27T05:44:13.540Z,5.40
2023-01-27T05:46:42.875Z,4.90
2023-01-27T05:49:10.949Z,6.40
2023-01-27T05:51:41.302Z,7.87
2023-01-27T05:54:09.645Z,7.80
2023-01-27T05:56:37.819Z,5.37
2023-01-27T05:59:05.891Z,6.30
2023-01-27T06:01:35.557Z,4.90
2023-01-27T06:04:03.913Z,6.40
2023-01-27T06:06:33.645Z,6.57
2023-01-27T06:09:04.177Z,6.30
2023-01-27T06:11:32.826Z,5.03
2023-01-27T06:14:00.861Z,4.33
2023-01-27T06:16:29.161Z,9.03
2023-01-27T06:18:58.540Z,5.70
2023-01-27T06:21:26.723Z,8.40
2023-01-27T06:23:55.882Z,5.93
2023-01-27T06:26:25.382Z,4.07
2023-01-27T06:28:53.597Z,5.63
2023-01-27T06:31:23.413Z,5.75
2023-01-27T06:33:51.627Z,5.00
2023-01-27T06:36:21.475Z,6.27
2023-01-27T06:38:50.439Z,5.00
2023-01-27T06:41:18.752Z,4.40
2023-01-27T06:43:48.200Z,4.43
2023-01-27T06:46:16.224Z,2.77
2023-01-27T06:48:44.268Z,3.87
2023-01-27T06:51:13.765Z,6.47
2023-01-27T06:53:41.762Z,3.80
2023-01-27T06:56:09.955Z,2.83
2023-01-27T06:58:37.976Z,4.77
2023-01-27T07:01:07.784Z,6.07
2023-01-27T07:03:35.939Z,3.30
2023-01-27T07:06:04.858Z,4.83
2023-01-27T07:08:33.137Z,3.93
2023-01-27T07:11:04.805Z,5.57
2023-01-27T07:13:33.093Z,2.73
2023-01-27T07:16:01.432Z,3.97
2023-01-27T07:18:31.179Z,3.27
2023-01-27T07:20:59.261Z,4.03
2023-01-27T07:23:27.271Z,5.40
2023-01-27T07:25:55.496Z,6.30
2023-01-27T07:28:23.750Z,5.33
2023-01-27T07:30:52.008Z,4.43
2023-01-27T07:33:20.463Z,4.17
2023-01-27T07:35:59.669Z,3.07
2023-01-27T07:38:27.725Z,4.23
2023-01-27T07:40:55.871Z,3.90
2023-01-27T07:43:24.796Z,2.53
2023-01-27T07:45:54.700Z,2.40
2023-01-27T07:48:22.943Z,4.50
2023-01-27T07:50:52.285Z,4.27
2023-01-27T07:53:20.330Z,3.13
2023-01-27T07:55:48.410Z,3.03
2023-01-27T07:58:16.750Z,4.57
2023-01-27T08:00:44.767Z,4.60
2023-01-27T08:03:23.322Z,5.77
2023-01-27T08:05:53.108Z,4.83
2023-01-27T08:08:23.166Z,3.23
2023-01-27T08:10:51.456Z,4.33
2023-01-27T08:13:19.548Z,2.33
2023-01-27T08:15:47.867Z,4.80
2023-01-27T08:18:16.202Z,2.63
2023-01-27T08:20:47.578Z,4.23
2023-01-27T08:23:18.438Z,4.50
2023-01-27T08:25:50.972Z,2.17
2023-01-27T08:28:20.098Z,4.27
2023-01-27T08:30:48.134Z,3.30
2023-01-27T08:33:16.589Z,2.50
2023-01-27T08:35:45.124Z,3.17
2023-01-27T08:38:14.676Z,2.87
2023-01-27T08:40:47.707Z,5.47
2023-01-27T08:43:17.369Z,2.33
2023-01-27T08:45:46.996Z,2.57
2023-01-27T08:48:15.030Z,2.43
2023-01-27T08:50:44.105Z,3.63
2023-01-27T08:53:12.078Z,3.03
2023-01-27T08:55:40.143Z,5.63
2023-01-27T08:58:09.532Z,2.77
2023-01-27T09:00:37.558Z,10.87
2023-01-27T09:03:05.718Z,5.10
2023-01-27T09:05:33.778Z,3.67
2023-01-27T09:08:01.939Z,4.47
2023-01-27T09:10:29.970Z,5.30
2023-01-27T09:12:58.168Z,4.23
2023-01-27T09:15:27.557Z,8.00
2023-01-27T09:17:55.700Z,2.60
2023-01-27T09:20:23.965Z,4.77
2023-01-27T09:22:51.956Z,3.83
2023-01-27T09:25:20.144Z,4.87
2023-01-27T09:27:48.621Z,3.60
2023-01-27T09:30:17.727Z,5.53
2023-01-27T09:32:47.495Z,5.27
2023-01-27T09:35:15.725Z,6.87
2023-01-27T09:37:47.390Z,6.03
2023-01-27T09:40:26.057Z,3.93
2023-01-27T09:43:28.089Z,1.43
2023-01-27T09:46:14.329Z,7.17
2023-01-27T09:48:57.986Z,1.93
2023-01-27T09:51:33.890Z,4.60
2023-01-27T09:54:24.621Z,3.57
2023-01-27T09:57:01.457Z,5.73
2023-01-27T09:59:48.041Z,2.93
2023-01-27T10:02:28.339Z,2.23
2023-01-27T10:05:10.553Z,2.53
2023-01-27T10:07:54.588Z,4.10
2023-01-27T10:10:32.457Z,5.50
2023-01-27T10:13:12.990Z,4.93
2023-01-27T10:15:50.370Z,5.60
2023-01-27T10:18:30.741Z,4.70
2023-01-27T10:21:07.647Z,3.60
2023-01-27T10:23:47.116Z,6.43
2023-01-27T10:26:24.658Z,4.20
2023-01-27T10:28:58.834Z,3.27
2023-01-27T10:31:31.644Z,3.03
2023-01-27T10:34:04.583Z,4.50
2023-01-27T10:36:42.289Z,4.43
2023-01-27T10:39:21.550Z,2.80
2023-01-27T10:42:00.579Z,5.13
2023-01-27T10:44:43.912Z,3.83
2023-01-27T10:47:22.622Z,2.40
2023-01-27T10:49:54.709Z,4.13
2023-01-27T10:52:28.339Z,1.63
2023-01-27T10:55:02.122Z,3.37
2023-01-27T10:57:36.293Z,3.37
2023-01-27T11:00:41.845Z,4.13
2023-01-27T11:03:02.026Z,2.87
2023-01-27T11:05:34.641Z,3.77
2023-01-27T11:08:08.956Z,3.23
2023-01-27T11:11:03.262Z,6.40
2023-01-27T11:13:33.673Z,3.50
2023-01-27T11:16:02.583Z,10.47
2023-01-27T11:18:33.617Z,3.57
2023-01-27T11:21:04.864Z,1.37
2023-01-27T11:23:39.666Z,5.13
2023-01-27T11:26:16.462Z,4.57
2023-01-27T11:28:51.915Z,3.00
2023-01-27T11:31:29.696Z,2.13
2023-01-27T11:34:08.129Z,3.20
2023-01-27T11:36:36.399Z,1.93
2023-01-27T11:39:06.764Z,2.83
2023-01-27T11:41:38.937Z,1.27
2023-01-27T11:44:13.280Z,1.00
2023-01-27T11:46:42.161Z,4.90
2023-01-27T11:49:11.065Z,2.13
2023-01-27T11:51:41.073Z,5.70
2023-01-27T11:54:17.204Z,2.33
2023-01-27T11:56:48.665Z,2.87
2023-01-27T11:59:26.627Z,2.77
2023-01-27T12:02:00.152Z,4.47
2023-01-27T12:04:46.692Z,1.60
2023-01-27T12:07:22.336Z,2.40
2023-01-27T12:09:51.990Z,1.20
2023-01-27T12:12:25.591Z,0.87
2023-01-27T12:14:55.616Z,1.90
2023-01-27T12:17:30.124Z,2.20
2023-01-27T12:20:02.036Z,1.73
2023-01-27T12:22:34.046Z,2.33
2023-01-27T12:25:07.917Z,2.87
2023-01-27T12:27:44.328Z,2.97
2023-01-27T12:30:22.251Z,1.77
2023-01-27T12:32:50.859Z,3.87
2023-01-27T12:35:23.075Z,2.47
2023-01-27T12:37:56.546Z,2.17
2023-01-27T12:40:28.991Z,3.37
2023-01-27T12:43:12.000Z,3.13
2023-01-27T12:45:41.296Z,3.03
2023-01-27T12:48:21.641Z,1.43
2023-01-27T12:51:04.627Z,5.10
2023-01-27T12:53:32.737Z,1.17
2023-01-27T12:56:10.762Z,0.83
2023-01-27T12:58:41.191Z,1.83
2023-01-27T13:01:24.217Z,3.80
2023-01-27T13:03:55.167Z,1.93
2023-01-27T13:06:35.239Z,2.57
2023-01-27T13:09:04.702Z,1.30
2023-01-27T13:11:38.351Z,1.00
2023-01-27T13:14:10.131Z,0.57
2023-01-27T13:16:39.676Z,1.17
2023-01-27T13:19:18.693Z,0.70
2023-01-27T13:21:50.305Z,1.63
2023-01-27T13:24:25.743Z,1.13
2023-01-27T13:26:56.771Z,0.63
2023-01-27T13:29:30.757Z,0.93
2023-01-27T13:32:05.257Z,1.40
2023-01-27T13:34:39.942Z,1.70
2023-01-27T13:37:14.441Z,1.23
2023-01-27T13:39:54.889Z,1.63
2023-01-27T13:42:28.832Z,4.50
2023-01-27T13:45:01.955Z,1.93
2023-01-27T13:47:47.490Z,1.83
2023-01-27T13:50:25.125Z,1.40
2023-01-27T13:52:55.693Z,1.60
2023-01-27T13:55:40.838Z,1.17
2023-01-27T13:58:19.526Z,2.73
2023-01-27T14:00:56.659Z,1.40
2023-01-27T14:03:44.803Z,4.80
2023-01-27T14:06:33.942Z,3.50
2023-01-27T14:09:15.567Z,1.87
2023-01-27T14:11:49.004Z,3.00
2023-01-27T14:14:29.272Z,1.90
2023-01-27T14:17:10.822Z,1.40
2023-01-27T14:19:52.556Z,4.03
2023-01-27T14:22:28.791Z,2.10
2023-01-27T14:25:03.528Z,2.37
2023-01-27T14:27:38.879Z,1.77
2023-01-27T14:30:16.345Z,3.03
2023-01-27T14:32:52.376Z,2.83
2023-01-27T14:35:32.440Z,2.73
2023-01-27T14:38:11.257Z,1.40
2023-01-27T14:40:46.543Z,4.33
2023-01-27T14:43:25.518Z,2.63
2023-01-27T14:46:06.448Z,3.40
2023-01-27T14:48:52.080Z,1.70
2023-01-27T14:51:29.515Z,1.43
2023-01-27T14:54:10.394Z,1.80
2023-01-27T14:56:47.072Z,1.60
2023-01-27T14:59:28.245Z,2.00
2023-01-27T15:02:04.053Z,3.63
2023-01-27T15:04:44.580Z,2.03
2023-01-27T15:07:19.215Z,2.23
2023-01-27T15:10:04.972Z,1.37
2023-01-27T15:12:54.356Z,2.13
2023-01-27T15:15:45.335Z,1.50
2023-01-27T15:18:42.281Z,1.50
2023-01-27T15:21:25.302Z,1.30
2023-01-27T15:24:10.442Z,2.30
2023-01-27T15:26:39.473Z,1.43
2023-01-27T15:29:11.438Z,3.40
2023-01-27T15:31:39.582Z,1.97
2023-01-27T15:34:22.101Z,1.50
2023-01-27T15:37:04.505Z,2.10
2023-01-27T15:39:41.588Z,3.13
2023-01-27T15:42:13.291Z,2.93
2023-01-27T15:44:43.456Z,4.63
2023-01-27T15:47:14.527Z,2.83
2023-01-27T15:49:48.763Z,4.53
2023-01-27T15:52:29.609Z,3.27
2023-01-27T15:55:02.768Z,3.27
2023-01-27T15:57:34.683Z,2.00
2023-01-27T16:00:07.871Z,1.90
2023-01-27T16:02:40.676Z,3.77
2023-01-27T16:05:20.598Z,2.27
2023-01-27T16:07:51.718Z,3.93
2023-01-27T16:10:22.532Z,3.67
2023-01-27T16:12:52.467Z,3.63
2023-01-27T16:15:33.313Z,2.20
2023-01-27T16:18:19.630Z,2.13
2023-01-27T16:20:56.536Z,2.67
2023-01-27T16:23:36.797Z,4.10
2023-01-27T16:26:25.125Z,3.50
2023-01-27T16:29:00.541Z,2.37
2023-01-27T16:31:32.398Z,4.03
2023-01-27T16:34:02.899Z,3.17
2023-01-27T16:36:34.553Z,4.67
2023-01-27T16:39:25.349Z,4.60
2023-01-27T16:41:59.665Z,3.97
2023-01-27T16:44:32.289Z,3.63
2023-01-27T16:47:15.987Z,5.83
2023-01-27T16:49:45.182Z,4.00
2023-01-27T16:52:21.251Z,4.60
2023-01-27T16:54:54.563Z,3.00
2023-01-27T16:57:31.160Z,5.37
2023-01-27T17:00:02.656Z,5.37
2023-01-27T17:02:32.576Z,4.90
2023-01-27T17:05:04.072Z,6.77
2023-01-27T17:07:34.635Z,4.30
2023-01-27T17:10:18.901Z,3.60
2023-01-27T17:12:52.386Z,5.73
2023-01-27T17:15:23.267Z,4.17
2023-01-27T17:17:51.972Z,5.20
2023-01-27T17:20:27.331Z,6.90
2023-01-27T17:22:57.493Z,5.90
2023-01-27T17:25:34.598Z,3.77
2023-01-27T17:28:06.232Z,3.37
2023-01-27T17:30:37.037Z,3.20
2023-01-27T17:33:07.776Z,3.23
2023-01-27T17:35:38.727Z,3.40
2023-01-27T17:38:13.464Z,5.57
2023-01-27T17:40:43.697Z,6.07
2023-01-27T17:43:27.664Z,3.53
2023-01-27T17:46:14.491Z,3.60
2023-01-27T17:48:47.184Z,5.40
2023-01-27T17:51:22.321Z,3.43
2023-01-27T17:53:53.854Z,3.63
2023-01-27T17:56:25.391Z,4.20
2023-01-27T17:58:56.805Z,3.13
2023-01-27T18:01:25.573Z,4.23
2023-01-27T18:03:57.947Z,5.03
2023-01-27T18:06:29.190Z,5.93
2023-01-27T18:09:02.629Z,4.97
2023-01-27T18:11:33.781Z,3.93
2023-01-27T18:14:10.467Z,3.97
2023-01-27T18:16:38.687Z,4.13
2023-01-27T18:19:09.789Z,3.60
2023-01-27T18:21:38.295Z,5.07
2023-01-27T18:24:20.929Z,5.77
2023-01-27T18:26:50.485Z,4.30
2023-01-27T18:29:24.114Z,6.50
2023-01-27T18:31:55.682Z,8.93
2023-01-27T18:34:28.765Z,5.33
2023-01-27T18:36:59.028Z,5.37
2023-01-27T18:39:35.832Z,6.70
2023-01-27T18:42:05.667Z,5.83
2023-01-27T18:44:37.124Z,5.60
2023-01-27T18:47:27.218Z,6.07
2023-01-27T18:49:59.764Z,4.17
2023-01-27T18:52:28.602Z,6.03
2023-01-27T18:55:03.453Z,4.37
2023-01-27T18:57:31.480Z,4.60
2023-01-27T19:00:01.194Z,5.57
2023-01-27T19:02:30.176Z,5.93
2023-01-27T19:04:59.222Z,5.53
2023-01-27T19:07:28.611Z,5.63
2023-01-27T19:10:00.703Z,8.00
2023-01-27T19:12:33.598Z,7.30
2023-01-27T19:15:05.057Z,6.23
2023-01-27T19:17:33.884Z,6.00
2023-01-27T19:20:02.533Z,5.57
2023-01-27T19:22:35.574Z,5.10
2023-01-27T19:25:07.258Z,5.37
2023-01-27T19:27:37.343Z,5.30
2023-01-27T19:30:32.978Z,6.20
2023-01-27T19:33:01.186Z,6.90
2023-01-27T19:35:32.638Z,5.70
2023-01-27T19:38:06.293Z,8.03
2023-01-27T19:40:35.638Z,8.93
2023-01-27T19:43:05.866Z,6.93
2023-01-27T19:45:35.550Z,5.87
2023-01-27T19:48:04.051Z,6.60
2023-01-27T19:50:33.705Z,6.50
2023-01-27T19:53:03.230Z,6.33
2023-01-27T19:55:31.722Z,5.80
2023-01-27T19:58:02.428Z,7.13
2023-01-27T20:00:32.841Z,5.70
2023-01-27T20:03:21.586Z,7.00
2023-01-27T20:05:50.652Z,6.57
2023-01-27T20:08:21.271Z,7.33
2023-01-27T20:10:49.482Z,5.57
2023-01-27T20:13:21.425Z,7.50
2023-01-27T20:15:51.901Z,9.23
2023-01-27T20:18:24.009Z,8.27
2023-01-27T20:20:52.526Z,8.43
2023-01-27T20:23:25.784Z,6.73
2023-01-27T20:25:58.927Z,9.03
2023-01-27T20:28:29.486Z,7.07
2023-01-27T20:31:00.536Z,7.40
2023-01-27T20:33:49.622Z,7.27
2023-01-27T20:36:19.880Z,8.67
2023-01-27T20:38:48.710Z,8.20
2023-01-27T20:41:19.968Z,10.57
2023-01-27T20:43:50.340Z,9.13
2023-01-27T20:46:21.183Z,10.43
2023-01-27T20:48:50.064Z,7.67
2023-01-27T20:51:18.552Z,8.90
2023-01-27T20:53:50.047Z,8.70
2023-01-27T20:56:20.068Z,7.50
2023-01-27T20:58:54.641Z,7.87
2023-01-27T21:01:24.940Z,7.67
2023-01-27T21:03:53.419Z,9.20
2023-01-27T21:06:24.572Z,9.37
2023-01-27T21:08:55.294Z,8.60
2023-01-27T21:11:44.274Z,8.80
2023-01-27T21:14:16.036Z,10.27
2023-01-27T21:16:46.766Z,9.70
2023-01-27T21:19:15.610Z,9.67
2023-01-27T21:21:45.027Z,8.43
2023-01-27T21:24:13.712Z,9.60
2023-01-27T21:26:44.121Z,8.60
2023-01-27T21:29:17.718Z,8.93
2023-01-27T21:31:50.792Z,10.57
2023-01-27T21:34:19.290Z,10.33
2023-01-27T21:37:07.528Z,10.93
2023-01-27T21:39:35.691Z,9.57
2023-01-27T21:42:21.378Z,11.13
2023-01-27T21:45:09.425Z,9.87
2023-01-27T21:47:37.954Z,12.13
2023-01-27T21:50:06.407Z,10.20
2023-01-27T21:52:39.362Z,10.77
2023-01-27T21:55:09.828Z,9.37
2023-01-27T21:57:38.188Z,9.60
2023-01-27T22:00:10.456Z,10.73
2023-01-27T22:02:38.967Z,10.60
2023-01-27T22:05:10.808Z,15.83
2023-01-27T22:07:41.967Z,12.70
2023-01-27T22:10:19.026Z,11.37
2023-01-27T22:12:50.417Z,12.00
2023-01-27T22:15:21.101Z,11.43
2023-01-27T22:17:51.803Z,12.73
2023-01-27T22:20:20.317Z,10.90
2023-01-27T22:22:48.860Z,12.07
2023-01-27T22:25:18.462Z,12.33
2023-01-27T22:27:47.177Z,9.40
2023-01-27T22:30:19.055Z,12.07
2023-01-27T22:32:51.784Z,9.77
2023-01-27T22:35:42.696Z,13.23
2023-01-27T22:38:11.561Z,12.40
2023-01-27T22:40:39.707Z,9.83
2023-01-27T22:43:10.667Z,12.53
2023-01-27T22:45:39.355Z,11.17
2023-01-27T22:48:09.578Z,9.03
2023-01-27T22:50:40.460Z,10.63
2023-01-27T22:53:29.670Z,11.87
2023-01-27T22:56:01.336Z,11.67
2023-01-27T22:58:29.971Z,10.70
2023-01-27T23:00:58.561Z,11.97
2023-01-27T23:03:28.143Z,10.27
2023-01-27T23:05:56.996Z,9.83
2023-01-27T23:08:26.786Z,11.77
2023-01-27T23:10:54.972Z,10.07
2023-01-27T23:13:23.151Z,10.60
2023-01-27T23:15:52.172Z,9.43
2023-01-27T23:18:21.886Z,9.70
2023-01-27T23:20:51.725Z,10.47
2023-01-27T23:23:20.538Z,10.17
2023-01-27T23:25:49.563Z,9.80
2023-01-27T23:28:19.517Z,10.50
2023-01-27T23:30:49.145Z,12.23
2023-01-27T23:33:39.098Z,10.63
2023-01-27T23:36:13.395Z,17.10
2023-01-27T23:38:42.871Z,10.70
2023-01-27T23:41:18.156Z,10.50
2023-01-27T23:43:46.863Z,13.37
2023-01-27T23:46:16.054Z,11.40
2023-01-27T23:48:49.818Z,11.80
2023-01-27T23:51:20.248Z,13.30
2023-01-27T23:53:48.635Z,10.00
2023-01-27T23:56:19.485Z,10.97
2023-01-27T23:59:02.888Z,13.17
